Portada
METAR-TAF:

METAR-TAF

Aeroports :

Koné, Nova Caledònia

latitud: 21-03-12S, longitud: 164-50-18E, altitud: 7 m

METAR: manca

Hora: 03:09 (16:09 UTC)

Pronòstic

L'informe es va fer fa 7 hores i 55 minuts, a les 08:14 UTC
Pronòstic vàlid del 21 a les 08 UTC al 22 a les 06 UTC
Vent 2 kt amb direcció variable
Visibilitat 10 km o més
Núvols disperses a una alçada de 4000 ft
Cel ennuvolat a una alçada de 5000 ft
Cel ennuvolat a una alçada de 6400 ft
Temporalment
l' 21 a les 08 UTC al 21 a les 10 UTC
Visibilitat: 4000 m
Escasses núvols a una alçada de 2500 ft, Cumulus congestus.
xàfecs de pluja
Evolucionant progressivament
l' 21 a les 22 UTC al 21 a les 24 UTC
Vent 12 kt del Sud/Sud-Oest

TAF: NWWD 210814Z 2108/2206 VRB02KT 9999 SCT040 BKN050 BKN064 TEMPO 2108/2110 4000 SHRA FEW025TCU BECMG 2122/2124 20012KT

Observacions i pronòstics meteorològics de més de 4000 aeroports (METAR i TAF).

Les estacions disponibles són els punts grocs i vermells al mapa.

Posi el ratolí al punt desitjat per veure el nom de l'estació.

Feu clic per veure les observacions i els pronòstics meteorològics.

Per canviar el mapa: feu clic els botons verds amb una creu de color negre per apropar; al botó verd amb un guió per allunyar la imatge; o en les fletxes verdes per a mapes adjacents.


METAR-TAF: